createdAt,value
2022-12-03T00:00:39.994Z,51.13
2022-12-03T00:05:48.313Z,53.95
2022-12-03T00:10:51.697Z,53.42
2022-12-03T00:15:53.410Z,51.45
2022-12-03T00:20:55.106Z,55.10
2022-12-03T00:25:56.829Z,57.05
2022-12-03T00:30:58.662Z,52.92
2022-12-03T00:36:00.401Z,45.63
2022-12-03T00:41:02.050Z,52.88
2022-12-03T00:46:03.847Z,44.60
2022-12-03T00:51:05.670Z,49.05
2022-12-03T00:56:07.701Z,52.30
2022-12-03T01:01:09.415Z,55.15
2022-12-03T01:06:11.072Z,49.40
2022-12-03T01:11:38.698Z,47.97
2022-12-03T01:16:41.769Z,49.72
2022-12-03T01:21:49.497Z,46.33
2022-12-03T01:26:51.242Z,48.47
2022-12-03T01:32:11.577Z,47.25
2022-12-03T01:37:14.121Z,45.08
2022-12-03T01:42:25.791Z,44.72
2022-12-03T01:47:33.682Z,50.75
2022-12-03T01:52:39.112Z,49.58
2022-12-03T01:57:54.127Z,46.70
2022-12-03T02:02:59.324Z,43.50
2022-12-03T02:08:01.455Z,48.30
2022-12-03T02:13:07.510Z,45.13
2022-12-03T02:18:10.061Z,45.65
2022-12-03T02:23:21.295Z,46.40
2022-12-03T02:28:23.079Z,46.42
2022-12-03T02:33:24.751Z,49.70
2022-12-03T02:38:29.043Z,45.30
2022-12-03T02:43:31.140Z,41.38
2022-12-03T02:48:36.564Z,44.05
2022-12-03T02:53:45.751Z,44.05
2022-12-03T02:58:50.145Z,49.58
2022-12-03T03:03:52.748Z,40.83
2022-12-03T03:08:54.642Z,45.58
2022-12-03T03:13:56.340Z,43.35
2022-12-03T03:18:57.992Z,40.53
2022-12-03T03:23:59.746Z,43.95
2022-12-03T03:29:03.009Z,41.80
2022-12-03T03:34:05.252Z,45.30
2022-12-03T03:39:07.028Z,43.53
2022-12-03T03:44:09.492Z,42.80
2022-12-03T03:49:12.255Z,46.83
2022-12-03T03:54:14.564Z,40.67
2022-12-03T03:59:16.690Z,38.80
2022-12-03T04:04:21.290Z,41.30
2022-12-03T04:09:22.965Z,40.38
2022-12-03T04:14:24.662Z,46.50
2022-12-03T04:19:26.355Z,39.42
2022-12-03T04:24:28.029Z,43.58
2022-12-03T04:29:29.678Z,38.83
2022-12-03T04:34:49.871Z,39.45
2022-12-03T04:39:51.553Z,39.08
2022-12-03T04:44:53.588Z,35.97
2022-12-03T04:49:55.496Z,39.60
2022-12-03T04:54:57.276Z,38.63
2022-12-03T04:59:58.990Z,39.10
2022-12-03T05:05:00.652Z,36.20
2022-12-03T05:10:02.638Z,39.70
2022-12-03T05:15:07.291Z,44.03
2022-12-03T05:20:28.294Z,42.53
2022-12-03T05:25:29.994Z,36.47
2022-12-03T05:30:32.361Z,35.50
2022-12-03T05:35:34.175Z,39.30
2022-12-03T05:40:37.157Z,37.30
2022-12-03T05:45:41.275Z,39.92
2022-12-03T05:50:45.986Z,40.40
2022-12-03T05:55:47.617Z,36.55
2022-12-03T06:00:49.296Z,42.97
2022-12-03T06:05:50.965Z,42.55
2022-12-03T06:10:52.744Z,37.65
2022-12-03T06:15:54.503Z,37.03
2022-12-03T06:20:56.196Z,39.55
2022-12-03T06:25:57.857Z,38.70
2022-12-03T06:30:59.631Z,34.45
2022-12-03T06:36:01.348Z,33.55
2022-12-03T06:41:03.003Z,34.03
2022-12-03T06:46:05.063Z,37.45
2022-12-03T06:51:06.764Z,36.03
2022-12-03T06:56:08.521Z,31.50
2022-12-03T07:01:11.047Z,36.80
2022-12-03T07:06:12.934Z,35.97
2022-12-03T07:11:32.959Z,33.60
2022-12-03T07:16:38.363Z,32.83
2022-12-03T07:21:40.593Z,38.45
2022-12-03T07:26:42.260Z,40.00
2022-12-03T07:31:43.980Z,39.75
2022-12-03T07:36:45.664Z,37.13
2022-12-03T07:41:47.413Z,37.80
2022-12-03T07:46:49.200Z,35.63
2022-12-03T07:51:54.382Z,37.67
2022-12-03T07:57:01.138Z,35.22
2022-12-03T08:02:03.416Z,37.10
2022-12-03T08:07:06.020Z,33.92
2022-12-03T08:12:22.809Z,37.03
2022-12-03T08:17:25.369Z,38.22
2022-12-03T08:22:27.048Z,40.58
2022-12-03T08:27:29.989Z,43.67
2022-12-03T08:32:31.851Z,38.03
2022-12-03T08:37:35.694Z,40.63
2022-12-03T08:42:43.160Z,44.88
2022-12-03T08:47:45.343Z,36.92
2022-12-03T08:52:47.014Z,45.55
2022-12-03T08:57:48.822Z,40.10
2022-12-03T09:02:53.796Z,39.20
2022-12-03T09:07:55.546Z,35.58
2022-12-03T09:12:57.310Z,40.08
2022-12-03T09:17:59.135Z,36.60
2022-12-03T09:23:00.933Z,36.42
2022-12-03T09:28:02.873Z,41.78
2022-12-03T09:33:04.716Z,39.80
2022-12-03T09:38:06.414Z,37.60
2022-12-03T09:43:08.527Z,36.85
2022-12-03T09:48:12.474Z,36.72
2022-12-03T09:53:17.534Z,38.35
2022-12-03T09:58:19.705Z,36.20
2022-12-03T10:03:29.840Z,40.50
2022-12-03T10:08:32.900Z,35.50
2022-12-03T10:13:37.185Z,31.70
2022-12-03T10:18:42.597Z,37.97
2022-12-03T10:23:44.391Z,37.00
2022-12-03T10:28:47.618Z,34.80
2022-12-03T10:33:58.102Z,34.55
2022-12-03T10:39:16.569Z,35.20
2022-12-03T10:44:22.891Z,33.70
2022-12-03T10:49:24.553Z,40.13
2022-12-03T10:54:29.591Z,36.13
2022-12-03T10:59:33.827Z,37.10
2022-12-03T11:04:36.522Z,36.72
2022-12-03T11:09:38.294Z,37.45
2022-12-03T11:14:50.798Z,37.95
2022-12-03T11:19:53.005Z,37.58
2022-12-03T11:25:25.771Z,40.10
2022-12-03T11:30:56.869Z,33.95
2022-12-03T11:36:04.668Z,39.05
2022-12-03T11:41:10.005Z,39.20
2022-12-03T11:46:11.738Z,39.47
2022-12-03T11:51:16.010Z,37.85
2022-12-03T11:56:20.591Z,44.30
2022-12-03T12:01:38.971Z,39.95
2022-12-03T12:06:48.695Z,39.55
2022-12-03T12:11:53.396Z,39.13
2022-12-03T12:16:55.412Z,39.60
2022-12-03T12:22:13.713Z,40.05
2022-12-03T12:27:30.517Z,41.95
2022-12-03T12:32:35.167Z,40.60
2022-12-03T12:37:49.305Z,40.53
2022-12-03T12:42:57.892Z,43.22
2022-12-03T12:48:17.749Z,39.45
2022-12-03T12:53:23.172Z,45.17
2022-12-03T12:58:26.051Z,37.95
2022-12-03T13:03:32.617Z,37.42
2022-12-03T13:08:40.078Z,41.75
2022-12-03T13:13:44.264Z,42.05
2022-12-03T13:18:47.608Z,44.13
2022-12-03T13:23:52.846Z,49.55
2022-12-03T13:28:57.290Z,48.78
2022-12-03T13:34:00.785Z,41.80
2022-12-03T13:39:12.389Z,51.00
2022-12-03T13:44:18.142Z,50.78
2022-12-03T13:49:22.872Z,49.88
2022-12-03T13:54:27.726Z,50.80
2022-12-03T13:59:29.456Z,56.47
2022-12-03T14:04:31.217Z,53.00
2022-12-03T14:09:32.949Z,52.85
2022-12-03T14:14:34.828Z,57.17
2022-12-03T14:19:36.601Z,58.17
2022-12-03T14:24:39.942Z,55.03
2022-12-03T14:29:41.639Z,56.90
2022-12-03T14:34:43.331Z,58.58
2022-12-03T14:39:45.121Z,60.28
2022-12-03T14:44:51.504Z,57.88
2022-12-03T14:49:53.473Z,62.58
2022-12-03T14:54:55.272Z,63.13
2022-12-03T14:59:57.390Z,60.88
2022-12-03T15:04:59.220Z,61.20
2022-12-03T15:10:00.993Z,57.65
2022-12-03T15:15:02.731Z,52.33
2022-12-03T15:20:04.824Z,56.78
2022-12-03T15:25:07.720Z,64.50
2022-12-03T15:30:09.851Z,59.55
2022-12-03T15:35:26.592Z,49.00
2022-12-03T15:40:28.453Z,66.32
2022-12-03T15:45:30.161Z,54.00
2022-12-03T15:50:34.613Z,61.35
2022-12-03T15:55:40.310Z,58.35
2022-12-03T16:00:42.053Z,62.75
2022-12-03T16:05:43.724Z,63.92
2022-12-03T16:10:45.662Z,60.30
2022-12-03T16:15:47.405Z,67.28
2022-12-03T16:20:49.140Z,62.13
2022-12-03T16:25:50.952Z,59.80
2022-12-03T16:30:53.480Z,68.10
2022-12-03T16:35:55.436Z,65.75
2022-12-03T16:40:57.148Z,67.47
2022-12-03T16:46:02.882Z,60.30
2022-12-03T16:51:04.884Z,60.55
2022-12-03T16:56:06.686Z,72.00
2022-12-03T17:01:09.576Z,56.53
2022-12-03T17:06:11.335Z,58.92
2022-12-03T17:11:13.211Z,59.17
2022-12-03T17:16:15.194Z,66.00
2022-12-03T17:21:17.050Z,51.13
2022-12-03T17:26:19.141Z,55.22
2022-12-03T17:31:20.928Z,53.63
2022-12-03T17:36:25.615Z,49.00
2022-12-03T17:41:27.272Z,50.55
2022-12-03T17:46:29.010Z,52.63
2022-12-03T17:51:30.879Z,51.53
2022-12-03T17:56:32.835Z,56.33
2022-12-03T18:01:34.573Z,57.80
2022-12-03T18:06:36.553Z,56.55
2022-12-03T18:11:38.262Z,58.92
2022-12-03T18:16:41.159Z,53.95
2022-12-03T18:21:42.963Z,59.25
2022-12-03T18:26:44.612Z,55.65
2022-12-03T18:31:46.361Z,61.85
2022-12-03T18:36:49.324Z,56.50
2022-12-03T18:41:51.371Z,59.47
2022-12-03T18:46:54.561Z,64.75
2022-12-03T18:51:59.488Z,58.35
2022-12-03T18:57:01.576Z,65.85
2022-12-03T19:02:04.298Z,62.20
2022-12-03T19:07:06.108Z,60.78
2022-12-03T19:12:14.460Z,70.18
2022-12-03T19:17:16.509Z,59.45
2022-12-03T19:22:18.198Z,59.47
2022-12-03T19:27:19.862Z,65.43
2022-12-03T19:32:21.548Z,65.72
2022-12-03T19:37:23.248Z,60.72
2022-12-03T19:42:24.986Z,55.88
2022-12-03T19:47:26.697Z,71.32
2022-12-03T19:52:28.539Z,65.68
2022-12-03T19:57:30.198Z,62.88
2022-12-03T20:02:32.243Z,57.50
2022-12-03T20:07:34.075Z,58.88
2022-12-03T20:12:35.775Z,60.40
2022-12-03T20:17:37.453Z,57.70
2022-12-03T20:22:39.107Z,68.03
2022-12-03T20:27:40.777Z,56.42
2022-12-03T20:32:45.516Z,64.72
2022-12-03T20:37:47.427Z,68.63
2022-12-03T20:42:49.103Z,63.40
2022-12-03T20:47:50.753Z,67.10
2022-12-03T20:53:09.711Z,66.60
2022-12-03T20:58:14.071Z,55.83
2022-12-03T21:03:16.008Z,62.08
2022-12-03T21:08:33.011Z,67.00
2022-12-03T21:13:43.716Z,62.17
2022-12-03T21:18:46.150Z,70.63
2022-12-03T21:23:48.044Z,69.40
2022-12-03T21:28:52.646Z,62.22
2022-12-03T21:33:55.739Z,62.40
2022-12-03T21:38:57.499Z,65.60
2022-12-03T21:43:59.327Z,68.75
2022-12-03T21:49:01.388Z,65.03
2022-12-03T21:54:03.296Z,61.15
2022-12-03T21:59:05.163Z,68.25
2022-12-03T22:04:06.847Z,67.93
2022-12-03T22:09:09.062Z,67.07
2022-12-03T22:14:12.773Z,58.08
2022-12-03T22:19:14.583Z,67.80
2022-12-03T22:24:18.238Z,70.90
2022-12-03T22:29:20.287Z,72.55
2022-12-03T22:34:22.039Z,67.65
2022-12-03T22:39:23.805Z,69.13
2022-12-03T22:44:25.594Z,67.70
2022-12-03T22:49:27.407Z,64.25
2022-12-03T22:54:29.094Z,68.13
2022-12-03T22:59:30.973Z,67.43
2022-12-03T23:04:32.700Z,68.82
2022-12-03T23:09:34.424Z,62.60
2022-12-03T23:14:36.712Z,58.97
2022-12-03T23:19:38.441Z,59.30
2022-12-03T23:24:40.134Z,77.45
2022-12-03T23:29:41.928Z,66.63
2022-12-03T23:34:43.764Z,63.72
2022-12-03T23:39:48.093Z,68.60
2022-12-03T23:44:49.965Z,66.18
2022-12-03T23:49:51.971Z,68.38
2022-12-03T23:54:54.137Z,62.30
2022-12-03T23:59:56.601Z,60.70
